North Fork, Idaho
Current Conditions -  °F | °C
As of 3:35 PM on Sunday 23 Nov 2014 (Local Time) from KSMN Reporting Station
Broken Clouds Broken Clouds  
Wind Chill: 32°   Ceiling: 7500
Heat Index: 37°   Visibility: 10mi
Dew Point: 25°   Wind: 7mph
Humidity: 60%   Direction: 10°N
Pressure: 30.08"   Gusts: NA
Location:  45.41°N, 114°W
Report Text: KSMN 232235Z AUTO 01006KT 10SM BKN075 BKN080 03/M04 A3008 RMK AO1
Loading
Personal Weather Stations






























Interactive Weather Map New forecast layout! Learn more

10-Day Weather Forecast

Advertisements
Track Severe Weather on mobile